Time;durP1;ratioP1;P1;durP2;ratioP2;P2;SDS_P1;SDS_P2;PMS_P1;PMS_P2;Temp;Humidity;BMP_temperature;BMP_pressure;BME280_temperature;BME280_humidity;BME280_pressure;Samples;Min_cycle;Max_cycle;Signal;HPM_P1;HPM_P2
2022/04/06 00:00:53;;;;;;;18.73;9.17;;;;;;;9.29;100.00;99909.50;5112635;28;20258;-72
2022/04/06 00:03:20;;;;;;;21.13;10.23;;;;;;;9.30;100.00;99905.97;5114552;28;20250;-72
2022/04/06 00:05:47;;;;;;;16.43;9.23;;;;;;;9.25;100.00;99907.97;5130065;28;20596;-72
2022/04/06 00:08:13;;;;;;;18.60;9.70;;;;;;;9.29;100.00;99904.28;5117478;28;20193;-72
2022/04/06 00:10:40;;;;;;;15.60;9.00;;;;;;;9.24;100.00;99904.50;5113253;28;20177;-72
2022/04/06 00:13:06;;;;;;;19.63;9.10;;;;;;;9.28;100.00;99897.34;5123625;28;20188;-72
2022/04/06 00:15:34;;;;;;;20.40;9.13;;;;;;;9.30;100.00;99893.75;5137173;27;20553;-72
2022/04/06 00:18:00;;;;;;;9.77;8.80;;;;;;;9.23;100.00;99881.09;5137839;27;20211;-72
2022/04/06 00:20:27;;;;;;;14.07;9.27;;;;;;;9.27;100.00;99883.44;5135019;27;20539;-71
2022/04/06 00:22:53;;;;;;;12.77;9.00;;;;;;;9.27;100.00;99880.00;5124727;27;20527;-72
2022/04/06 00:25:20;;;;;;;12.40;8.70;;;;;;;9.30;100.00;99883.31;5137933;27;20209;-73
2022/04/06 00:27:46;;;;;;;11.63;9.17;;;;;;;9.31;100.00;99878.94;5137376;27;20226;-72
2022/04/06 00:30:13;;;;;;;14.50;8.67;;;;;;;9.31;100.00;99881.53;5137608;27;20539;-73
2022/04/06 00:32:39;;;;;;;16.33;9.20;;;;;;;9.28;100.00;99873.84;5137200;27;20233;-73
2022/04/06 00:37:51;;;;;;;18.67;8.80;;;;;;;9.27;100.00;99885.22;5116908;28;20711;-72
2022/04/06 00:40:19;;;;;;;9.80;8.57;;;;;;;9.24;100.00;99877.53;5127646;27;20184;-72
2022/04/06 00:42:46;;;;;;;16.00;8.97;;;;;;;9.28;100.00;99882.53;5116951;28;20197;-72
2022/04/06 00:45:13;;;;;;;12.27;8.63;;;;;;;9.31;100.00;99877.16;5121934;27;20204;-72
2022/04/06 00:47:40;;;;;;;13.70;9.80;;;;;;;9.31;100.00;99882.38;5133049;27;20189;-72
2022/04/06 00:50:07;;;;;;;13.10;8.00;;;;;;;9.31;100.00;99881.53;5120154;27;20192;-73
2022/04/06 00:52:34;;;;;;;10.70;8.30;;;;;;;9.24;100.00;99874.94;5115708;27;20197;-72
2022/04/06 00:55:01;;;;;;;13.13;8.73;;;;;;;9.26;100.00;99878.31;5130422;27;20220;-69
2022/04/06 00:57:28;;;;;;;10.37;8.50;;;;;;;9.26;100.00;99878.31;5137373;27;20542;-72
2022/04/06 00:59:57;;;;;;;15.60;8.07;;;;;;;9.28;100.00;99871.22;5135673;27;20196;-72
2022/04/06 01:02:25;;;;;;;17.07;9.37;;;;;;;9.25;100.00;99874.84;5129758;27;20212;-71
2022/04/06 01:04:52;;;;;;;12.00;8.97;;;;;;;9.26;100.00;99878.31;5135467;27;20215;-72
2022/04/06 01:07:19;;;;;;;17.33;8.17;;;;;;;9.19;100.00;99851.63;5127044;27;20196;-73
2022/04/06 01:09:46;;;;;;;14.50;8.77;;;;;;;9.25;100.00;99856.56;5127817;27;20245;-72
2022/04/06 01:12:15;;;;;;;13.50;8.30;;;;;;;9.23;100.00;99853.19;5136507;27;20664;-72
2022/04/06 01:14:43;;;;;;;9.23;8.43;;;;;;;9.22;100.00;99851.50;5127560;27;20238;-72
2022/04/06 01:17:09;;;;;;;15.83;9.17;;;;;;;9.26;100.00;99850.41;5128825;27;20602;-72
2022/04/06 01:19:39;;;;;;;11.90;8.77;;;;;;;9.33;100.00;99848.34;5115386;28;20268;-72
2022/04/06 01:22:17;;;;;;;8.43;7.67;;;;;;;9.27;100.00;99852.09;5114998;28;20205;-72
2022/04/06 01:24:45;;;;;;;12.97;8.00;;;;;;;9.33;100.00;99843.13;5132409;27;20223;-72
2022/04/06 01:27:13;;;;;;;13.70;7.57;;;;;;;9.31;100.00;99848.44;5119401;27;20651;-72
2022/04/06 01:29:40;;;;;;;13.00;7.47;;;;;;;9.22;100.00;99845.44;5119091;27;20181;-72
2022/04/06 01:32:09;;;;;;;8.57;7.67;;;;;;;9.29;100.00;99846.81;5115539;28;20227;-72
2022/04/06 01:34:36;;;;;;;12.13;7.67;;;;;;;9.34;100.00;99845.66;5125709;27;20261;-72
2022/04/06 01:37:04;;;;;;;8.47;7.70;;;;;;;9.32;100.00;99846.66;5119793;27;20258;-72
2022/04/06 01:39:34;;;;;;;9.43;7.67;;;;;;;9.26;100.00;99846.97;5116422;27;20185;-72
2022/04/06 01:42:02;;;;;;;11.57;8.30;;;;;;;9.14;100.00;99847.56;5128054;27;20205;-72
2022/04/06 01:44:29;;;;;;;18.50;8.13;;;;;;;9.09;100.00;99848.66;5115029;27;20625;-72
2022/04/06 01:46:56;;;;;;;11.17;7.83;;;;;;;9.11;100.00;99848.56;5114826;27;20235;-73
2022/04/06 01:52:13;;;;;;;16.80;7.40;;;;;;;9.02;100.00;99842.03;5118333;27;20181;-72
2022/04/06 01:54:43;;;;;;;10.53;7.93;;;;;;;9.15;100.00;99833.59;5114114;27;20286;-72
2022/04/06 01:57:10;;;;;;;11.17;8.77;;;;;;;9.14;100.00;99837.13;5115088;28;20185;-72
2022/04/06 01:59:36;;;;;;;12.50;7.67;;;;;;;9.11;100.00;99840.72;5118994;27;20250;-72
2022/04/06 02:02:04;;;;;;;10.50;8.03;;;;;;;9.09;100.00;99827.75;5134170;27;20204;-72
2022/04/06 02:04:31;;;;;;;15.00;7.60;;;;;;;9.09;100.00;99832.97;5117068;27;20243;-72
2022/04/06 02:06:58;;;;;;;8.37;7.53;;;;;;;9.06;100.00;99824.44;5135711;27;20233;-72
2022/04/06 02:09:24;;;;;;;9.20;8.20;;;;;;;9.10;100.00;99820.75;5116941;27;20201;-70
2022/04/06 02:11:51;;;;;;;16.87;8.40;;;;;;;9.09;100.00;99830.38;5115030;28;20240;-72
2022/04/06 02:14:17;;;;;;;11.23;7.10;;;;;;;9.07;100.00;99824.38;5125860;27;20273;-71
2022/04/06 02:16:44;;;;;;;16.63;7.40;;;;;;;9.04;100.00;99826.28;5115256;28;20193;-72
2022/04/06 02:19:11;;;;;;;18.10;8.53;;;;;;;9.06;100.00;99822.66;5114321;27;20192;-71
2022/04/06 02:21:37;;;;;;;13.27;7.40;;;;;;;9.02;100.00;99813.31;5114800;28;20678;-72
2022/04/06 02:24:04;;;;;;;12.77;7.07;;;;;;;9.01;100.00;99823.84;5123715;27;20227;-72
2022/04/06 02:26:30;;;;;;;9.97;6.97;;;;;;;9.00;100.00;99817.78;5132397;27;20206;-71
2022/04/06 02:28:59;;;;;;;17.53;6.90;;;;;;;9.01;100.00;99816.00;5118415;27;20189;-72
2022/04/06 02:31:26;;;;;;;10.90;7.00;;;;;;;8.96;100.00;99818.84;5134965;27;20222;-72
2022/04/06 02:33:52;;;;;;;10.63;7.20;;;;;;;8.91;100.00;99820.81;5125643;27;20200;-71
2022/04/06 02:36:19;;;;;;;10.00;7.33;;;;;;;8.90;100.00;99813.91;5113792;28;20214;-72
2022/04/06 02:38:47;;;;;;;9.53;6.70;;;;;;;8.97;100.00;99810.06;5124337;27;20192;-72
2022/04/06 02:41:13;;;;;;;22.20;7.43;;;;;;;8.96;100.00;99816.22;5125316;27;20200;-71
2022/04/06 02:43:40;;;;;;;15.23;6.33;;;;;;;8.92;100.00;99809.44;5133617;27;20577;-71
2022/04/06 02:46:07;;;;;;;17.53;6.87;;;;;;;8.90;100.00;99813.91;5123735;27;20250;-72
2022/04/06 02:48:33;;;;;;;6.67;6.17;;;;;;;8.94;100.00;99809.41;5117755;27;20268;-71
2022/04/06 02:51:00;;;;;;;14.50;7.03;;;;;;;8.95;100.00;99800.63;5129820;27;20192;-71
2022/04/06 02:53:26;;;;;;;10.47;6.50;;;;;;;8.90;100.00;99797.41;5122249;27;20200;-72
2022/04/06 02:55:53;;;;;;;11.40;5.80;;;;;;;8.96;100.00;99799.72;5122071;27;20640;-72
2022/04/06 02:58:19;;;;;;;6.40;5.90;;;;;;;8.98;100.00;99795.25;5115889;27;20242;-72
2022/04/06 03:00:46;;;;;;;5.97;5.37;;;;;;;9.03;100.00;99793.28;5133553;27;20241;-72
2022/04/06 03:03:12;;;;;;;7.13;6.13;;;;;;;8.99;100.00;99804.78;5132825;27;20191;-71
2022/04/06 03:05:39;;;;;;;6.47;5.33;;;;;;;8.87;100.00;99787.97;5115469;27;20213;-72
2022/04/06 03:08:06;;;;;;;8.97;5.87;;;;;;;8.92;100.00;99801.63;5113477;28;20188;-71
2022/04/06 03:10:33;;;;;;;7.20;5.23;;;;;;;8.88;100.00;99794.88;5123387;27;20188;-72
2022/04/06 03:13:00;;;;;;;9.73;5.20;;;;;;;8.85;100.00;99795.00;5128526;27;20188;-71
2022/04/06 03:15:27;;;;;;;7.20;6.27;;;;;;;8.86;100.00;99801.06;5117301;27;20197;-71
2022/04/06 03:17:53;;;;;;;11.23;5.87;;;;;;;8.85;100.00;99796.78;5113733;28;20276;-72
2022/04/06 03:20:20;;;;;;;7.40;5.40;;;;;;;8.91;100.00;99797.31;5125292;28;20188;-70
2022/04/06 03:22:47;;;;;;;6.70;4.60;;;;;;;8.86;100.00;99795.84;5112676;28;20254;-71
2022/04/06 03:25:13;;;;;;;10.17;5.30;;;;;;;8.85;100.00;99789.78;5112185;28;20204;-71
2022/04/06 03:27:39;;;;;;;4.93;4.50;;;;;;;8.87;100.00;99797.56;5113038;28;20242;-71
2022/04/06 03:30:11;;;;;;;10.17;5.20;;;;;;;8.80;100.00;99792.63;5114838;28;21452;-71
2022/04/06 03:32:38;;;;;;;7.37;5.00;;;;;;;8.77;100.00;99791.94;5134799;28;20233;-71
2022/04/06 03:35:06;;;;;;;6.77;5.30;;;;;;;8.76;100.00;99787.63;5114901;28;20216;-69
2022/04/06 03:37:32;;;;;;;7.67;5.73;;;;;;;8.75;100.00;99785.94;5114348;28;20774;-71
2022/04/06 03:39:59;;;;;;;6.43;5.40;;;;;;;8.78;100.00;99788.41;5128563;28;20245;-70
2022/04/06 03:42:26;;;;;;;5.90;5.47;;;;;;;8.82;100.00;99784.72;5123762;28;20269;-70
2022/04/06 03:44:52;;;;;;;5.83;5.53;;;;;;;8.74;100.00;99782.50;5132950;28;20230;-71
2022/04/06 03:47:18;;;;;;;9.20;5.30;;;;;;;8.77;100.00;99789.31;5114617;28;20193;-71
2022/04/06 03:49:45;;;;;;;7.43;5.90;;;;;;;8.72;100.00;99788.72;5130046;27;20196;-71
2022/04/06 03:52:11;;;;;;;7.73;5.83;;;;;;;8.80;100.00;99778.75;5123029;27;20588;-70
2022/04/06 03:54:38;;;;;;;15.17;5.27;;;;;;;8.81;100.00;99783.03;5136563;27;20192;-71
2022/04/06 03:57:04;;;;;;;6.23;5.70;;;;;;;8.73;100.00;99774.75;5119933;27;20189;-71
2022/04/06 03:59:31;;;;;;;7.40;5.10;;;;;;;8.73;100.00;99772.13;5129198;27;20192;-71
2022/04/06 04:01:57;;;;;;;11.87;4.67;;;;;;;8.80;100.00;99773.53;5119902;27;20227;-71
2022/04/06 04:04:25;;;;;;;12.33;5.53;;;;;;;8.72;100.00;99770.44;5133212;27;20219;-71
2022/04/06 04:06:52;;;;;;;8.50;5.90;;;;;;;8.75;100.00;99773.75;5116944;28;20197;-71
2022/04/06 04:09:23;;;;;;;4.87;4.43;;;;;;;8.74;99.93;99766.84;5125058;27;20234;-72
2022/04/06 04:11:49;;;;;;;8.93;6.10;;;;;;;8.77;99.86;99761.44;5128198;27;20238;-71
2022/04/06 04:14:16;;;;;;;7.43;5.07;;;;;;;8.80;99.69;99770.91;5123069;27;20585;-71
2022/04/06 04:16:42;;;;;;;8.53;5.60;;;;;;;8.72;98.62;99762.63;5124219;27;20675;-71
2022/04/06 04:19:09;;;;;;;6.03;5.50;;;;;;;8.79;98.53;99762.25;5126170;27;20221;-71
2022/04/06 04:21:35;;;;;;;8.03;5.93;;;;;;;8.69;99.18;99760.16;5134248;27;20196;-71
2022/04/06 04:24:08;;;;;;;8.97;5.30;;;;;;;8.71;98.95;99759.13;5121554;27;20230;-71
2022/04/06 04:26:36;;;;;;;5.80;5.27;;;;;;;8.69;98.29;99757.53;5116431;27;20205;-69
2022/04/06 04:29:04;;;;;;;5.83;5.07;;;;;;;8.70;98.14;99760.06;5121069;27;20569;-71
2022/04/06 04:31:30;;;;;;;10.70;5.37;;;;;;;8.67;98.55;99762.00;5137306;27;20185;-71
2022/04/06 04:33:57;;;;;;;9.20;4.80;;;;;;;8.66;98.60;99763.75;5121218;27;20214;-71
2022/04/06 04:36:27;;;;;;;9.37;4.83;;;;;;;8.60;98.28;99763.22;5130127;27;20275;-71
2022/04/06 04:38:55;;;;;;;5.60;5.27;;;;;;;8.65;98.24;99767.28;5105020;27;20206;-71
2022/04/06 04:41:22;;;;;;;7.40;5.30;;;;;;;8.62;97.88;99766.59;5122951;27;20185;-71
2022/04/06 04:43:50;;;;;;;7.30;5.07;;;;;;;8.66;97.57;99760.31;5123851;27;20241;-71
2022/04/06 04:46:17;;;;;;;6.20;5.60;;;;;;;8.60;96.99;99763.22;5137366;27;20619;-71
2022/04/06 04:48:45;;;;;;;10.07;5.07;;;;;;;8.61;97.33;99764.91;5134948;27;20199;-71
2022/04/06 04:51:12;;;;;;;6.17;4.63;;;;;;;8.49;97.85;99767.16;5125439;27;20201;-71
2022/04/06 04:53:39;;;;;;;5.30;4.77;;;;;;;8.48;97.88;99759.41;5119783;27;20249;-71
2022/04/06 04:56:06;;;;;;;7.70;5.43;;;;;;;8.46;97.62;99756.88;5116215;28;20212;-71
2022/04/06 04:58:32;;;;;;;12.83;6.20;;;;;;;8.49;97.29;99754.13;5132215;27;20233;-70
2022/04/06 05:00:59;;;;;;;8.37;5.93;;;;;;;8.56;97.02;99746.84;5125997;27;20196;-71
2022/04/06 05:03:26;;;;;;;7.27;5.37;;;;;;;8.46;97.46;99743.00;5118356;27;20193;-71
2022/04/06 05:05:53;;;;;;;5.70;5.30;;;;;;;8.46;97.17;99751.69;5115849;27;20570;-71
2022/04/06 05:08:24;;;;;;;5.80;5.10;;;;;;;8.44;97.08;99730.03;5115921;27;20281;-71
2022/04/06 05:10:51;;;;;;;5.67;5.27;;;;;;;8.50;96.92;99732.34;5116343;28;20178;-71
2022/04/06 05:13:17;;;;;;;13.00;4.97;;;;;;;8.43;97.55;99738.78;5115089;27;20181;-70
2022/04/06 05:15:45;;;;;;;6.60;5.07;;;;;;;8.50;97.13;99749.75;5134392;27;20215;-71
2022/04/06 05:18:11;;;;;;;5.23;4.83;;;;;;;8.50;96.40;99747.13;5135529;27;20188;-71
2022/04/06 05:20:38;;;;;;;5.80;5.37;;;;;;;8.51;96.19;99746.25;5124720;27;20263;-70
2022/04/06 05:23:05;;;;;;;5.47;5.13;;;;;;;8.60;96.50;99742.34;5132864;27;20245;-71
2022/04/06 05:25:31;;;;;;;5.57;4.83;;;;;;;8.59;95.82;99746.72;5135479;27;20587;-71
2022/04/06 05:27:58;;;;;;;5.47;4.97;;;;;;;8.62;95.02;99745.72;5135234;27;20244;-71
2022/04/06 05:30:26;;;;;;;6.53;5.03;;;;;;;8.66;96.23;99749.88;5132482;27;20236;-70
2022/04/06 05:32:55;;;;;;;6.77;4.50;;;;;;;8.66;95.40;99753.31;5115531;28;20197;-71
2022/04/06 05:35:24;;;;;;;5.33;4.77;;;;;;;8.68;95.02;99748.03;5115271;28;20216;-71
2022/04/06 05:37:50;;;;;;;5.87;5.37;;;;;;;8.65;96.10;99761.22;5113968;28;20189;-71
2022/04/06 05:40:18;;;;;;;4.67;4.30;;;;;;;8.64;95.98;99754.31;5114566;28;20234;-71
2022/04/06 05:42:45;;;;;;;5.10;4.60;;;;;;;8.69;95.80;99749.72;5114554;28;20265;-71
2022/04/06 05:45:12;;;;;;;7.87;4.70;;;;;;;8.68;95.20;99743.66;5118209;27;20277;-71
2022/04/06 05:47:39;;;;;;;4.90;4.50;;;;;;;8.75;95.78;99741.59;5116000;27;20185;-70
2022/04/06 05:50:07;;;;;;;7.40;4.43;;;;;;;8.71;95.53;99747.84;5114467;27;20190;-70
2022/04/06 05:52:34;;;;;;;6.60;5.03;;;;;;;8.78;94.37;99739.66;5125678;27;20208;-71
2022/04/06 05:55:01;;;;;;;9.87;5.50;;;;;;;8.77;94.91;99752.78;5116619;27;20217;-70
2022/04/06 05:57:28;;;;;;;7.37;3.77;;;;;;;8.81;94.39;99746.50;5118587;27;20246;-71
2022/04/06 05:59:54;;;;;;;8.47;5.10;;;;;;;8.80;95.28;99739.59;5130511;27;20673;-72
2022/04/06 06:02:23;;;;;;;14.40;4.50;;;;;;;8.84;95.10;99746.34;5134026;27;20201;-71
2022/04/06 06:04:51;;;;;;;5.37;4.40;;;;;;;8.84;94.75;99741.13;5133899;27;20264;-71
2022/04/06 06:07:21;;;;;;;7.47;4.60;;;;;;;8.91;94.73;99742.50;5134254;27;20633;-70
2022/04/06 06:09:47;;;;;;;8.20;4.30;;;;;;;8.83;94.16;99732.44;5131788;27;20242;-71
2022/04/06 06:12:14;;;;;;;10.10;4.93;;;;;;;8.93;95.12;99745.03;5132702;27;20840;-70
2022/04/06 06:14:41;;;;;;;6.83;4.33;;;;;;;8.90;94.46;99732.97;5129262;27;20204;-71
2022/04/06 06:17:07;;;;;;;8.90;4.97;;;;;;;8.94;95.04;99747.59;5119167;27;20734;-70
2022/04/06 06:19:34;;;;;;;6.53;4.50;;;;;;;8.93;94.18;99742.41;5125416;27;20249;-70
2022/04/06 06:22:00;;;;;;;14.97;5.33;;;;;;;8.91;95.03;99739.88;5134051;27;20211;-71
2022/04/06 06:24:27;;;;;;;6.20;4.87;;;;;;;8.98;94.51;99741.28;5130671;27;20216;-70
2022/04/06 06:26:54;;;;;;;8.00;5.37;;;;;;;8.97;93.79;99729.16;5131151;27;20192;-70
2022/04/06 06:29:22;;;;;;;8.70;5.73;;;;;;;8.99;93.24;99731.66;5113879;28;20196;-71
2022/04/06 06:31:49;;;;;;;6.20;4.27;;;;;;;9.01;94.45;99733.31;5114658;28;20215;-71
2022/04/06 06:34:15;;;;;;;7.23;5.17;;;;;;;9.01;94.19;99730.69;5110795;28;20204;-70
2022/04/06 06:36:42;;;;;;;8.77;5.07;;;;;;;9.08;93.46;99726.84;5113890;27;20258;-70
2022/04/06 06:39:08;;;;;;;4.67;4.30;;;;;;;9.09;93.09;99723.31;5120693;27;20197;-70
2022/04/06 06:41:35;;;;;;;4.67;4.27;;;;;;;9.10;94.03;99738.03;5133929;27;20191;-70
2022/04/06 06:44:04;;;;;;;4.40;4.17;;;;;;;9.00;92.50;99731.63;5134525;27;20208;-71
2022/04/06 06:46:31;;;;;;;3.73;3.73;;;;;;;9.12;90.18;99724.06;5134958;27;20241;-71
2022/04/06 06:49:03;;;;;;;3.57;3.37;;;;;;;9.09;89.75;99720.69;5134658;27;20528;-71
2022/04/06 06:51:32;;;;;;;3.87;3.60;;;;;;;9.10;88.12;99730.22;5129611;27;20177;-70
2022/04/06 06:54:00;;;;;;;3.40;3.27;;;;;;;9.20;87.45;99733.19;5126865;27;20645;-70
2022/04/06 06:56:27;;;;;;;7.00;3.50;;;;;;;9.20;88.29;99722.75;5134403;27;20195;-71
2022/04/06 06:58:53;;;;;;;3.80;3.60;;;;;;;9.32;88.25;99727.34;5134434;27;20191;-70
2022/04/06 07:01:20;;;;;;;4.07;3.90;;;;;;;9.16;89.25;99730.84;5134443;27;20214;-70
2022/04/06 07:03:46;;;;;;;4.43;3.70;;;;;;;9.10;90.21;99732.81;5134819;27;20200;-70
2022/04/06 07:06:13;;;;;;;5.90;3.70;;;;;;;9.09;90.05;99731.13;5124124;27;20249;-70
2022/04/06 07:08:40;;;;;;;6.83;4.17;;;;;;;9.07;90.85;99743.44;5131487;27;20180;-71
2022/04/06 07:11:06;;;;;;;4.63;3.77;;;;;;;9.00;91.46;99721.16;5134486;27;20180;-70
2022/04/06 07:13:33;;;;;;;9.30;3.70;;;;;;;8.94;91.17;99726.69;5134298;27;20188;-70
2022/04/06 07:15:59;;;;;;;5.10;4.60;;;;;;;8.99;92.10;99716.00;5134462;27;20694;-71
2022/04/06 07:18:26;;;;;;;3.80;3.60;;;;;;;9.09;92.59;99720.69;5134293;27;20244;-70
2022/04/06 07:20:58;;;;;;;4.23;4.03;;;;;;;9.08;92.79;99716.41;5115489;28;20177;-70
2022/04/06 07:23:25;;;;;;;8.33;4.73;;;;;;;9.04;93.38;99720.06;5113426;28;20201;-70
2022/04/06 07:25:52;;;;;;;9.17;4.80;;;;;;;8.86;94.32;99713.19;5113769;28;20295;-70
2022/04/06 07:28:19;;;;;;;5.37;5.10;;;;;;;8.90;95.11;99716.47;5113910;28;20230;-70
2022/04/06 07:30:45;;;;;;;5.37;4.97;;;;;;;8.70;96.65;99697.44;5113553;28;20223;-70
2022/04/06 07:33:15;;;;;;;6.60;6.13;;;;;;;8.66;98.35;99732.44;5118699;28;20218;-70
2022/04/06 07:35:42;;;;;;;8.33;6.43;;;;;;;8.64;98.40;99720.38;5134007;28;20228;-70
2022/04/06 07:38:11;;;;;;;15.80;5.93;;;;;;;8.71;98.00;99713.94;5122286;28;20193;-69
2022/04/06 07:40:38;;;;;;;6.60;5.70;;;;;;;8.80;97.94;99709.13;5114012;28;20188;-71
2022/04/06 07:43:05;;;;;;;12.77;6.00;;;;;;;8.79;97.38;99709.19;5113436;28;20213;-70
2022/04/06 07:45:31;;;;;;;5.87;5.53;;;;;;;8.93;97.56;99704.13;5114524;28;20204;-69
2022/04/06 07:47:58;;;;;;;7.17;6.40;;;;;;;8.92;97.51;99701.56;5116058;28;20193;-70
2022/04/06 07:50:24;;;;;;;9.03;6.60;;;;;;;8.92;97.93;99704.19;5131455;28;20200;-69
2022/04/06 07:52:51;;;;;;;6.10;5.50;;;;;;;8.85;97.50;99700.19;5133476;28;20184;-70
2022/04/06 07:55:17;;;;;;;7.30;6.00;;;;;;;8.89;97.26;99696.53;5133735;28;20257;-70
2022/04/06 07:57:44;;;;;;;5.67;5.27;;;;;;;8.87;97.71;99701.00;5127631;28;20238;-70
2022/04/06 08:00:16;;;;;;;5.77;5.40;;;;;;;8.91;95.91;99698.13;5125642;28;20738;-70
2022/04/06 08:02:47;;;;;;;6.60;6.17;;;;;;;8.86;96.18;99700.16;5134076;28;20234;-70
2022/04/06 08:05:14;;;;;;;15.57;12.27;;;;;;;8.91;96.63;99694.66;5130365;28;20216;-70
2022/04/06 08:07:43;;;;;;;5.93;5.40;;;;;;;8.91;96.73;99703.34;5134115;28;20168;-70
2022/04/06 08:10:12;;;;;;;9.43;5.10;;;;;;;8.82;96.28;99702.03;5134368;28;20189;-70
2022/04/06 08:12:39;;;;;;;6.40;5.23;;;;;;;8.90;95.88;99700.81;5134091;28;20185;-70
2022/04/06 08:15:08;;;;;;;5.17;4.87;;;;;;;8.88;96.34;99695.69;5133584;28;20569;-70
2022/04/06 08:17:43;;;;;;;5.20;4.30;;;;;;;8.91;97.14;99698.13;5128840;28;20621;-69
2022/04/06 08:20:12;;;;;;;5.97;5.13;;;;;;;9.03;95.46;99700.13;5113380;28;20591;-70
2022/04/06 08:22:43;;;;;;;5.17;4.97;;;;;;;9.02;95.54;99698.44;5113329;28;20259;-70
2022/04/06 08:25:09;;;;;;;6.97;4.83;;;;;;;8.99;95.32;99693.34;5113510;28;20280;-70
2022/04/06 08:27:56;;;;;;;11.27;4.43;;;;;;;8.85;96.05;99694.97;5113322;28;20173;-70
2022/04/06 08:30:22;;;;;;;5.47;5.00;;;;;;;8.88;96.12;99695.69;5113121;28;20610;-70
2022/04/06 08:32:49;;;;;;;20.87;4.47;;;;;;;8.95;96.63;99689.22;5129393;28;20192;-70
2022/04/06 08:35:17;;;;;;;5.90;4.23;;;;;;;8.94;95.41;99684.94;5134028;27;20205;-70
2022/04/06 08:37:43;;;;;;;6.40;4.80;;;;;;;8.90;96.09;99686.00;5136931;27;20723;-70
2022/04/06 08:40:11;;;;;;;8.53;5.63;;;;;;;8.93;95.46;99683.25;5137170;27;20189;-70
2022/04/06 08:42:38;;;;;;;9.87;4.60;;;;;;;8.98;95.95;99691.66;5118815;27;20207;-70
2022/04/06 08:45:06;;;;;;;5.23;5.03;;;;;;;9.01;96.56;99680.25;5136830;27;20209;-70
2022/04/06 08:47:33;;;;;;;6.23;5.70;;;;;;;8.98;96.47;99683.84;5116934;27;20192;-70
2022/04/06 08:50:03;;;;;;;11.37;5.70;;;;;;;8.99;95.69;99684.69;5136984;27;20223;-70
2022/04/06 08:52:32;;;;;;;14.23;5.70;;;;;;;8.96;95.97;99671.78;5137212;27;20260;-70
2022/04/06 08:55:18;;;;;;;10.40;5.23;;;;;;;9.13;96.02;99673.53;5136906;27;20306;-70
2022/04/06 08:57:45;;;;;;;5.50;5.10;;;;;;;9.25;96.77;99665.88;5132810;27;20189;-69
2022/04/06 09:00:15;;;;;;;6.63;6.03;;;;;;;9.47;94.94;99677.81;5136061;27;20233;-70
2022/04/06 09:02:42;;;;;;;12.30;5.53;;;;;;;9.49;94.44;99675.94;5118041;27;20216;-70
2022/04/06 09:05:10;;;;;;;6.73;5.43;;;;;;;9.55;94.60;99673.03;5129927;27;20215;-69
2022/04/06 09:07:39;;;;;;;6.27;5.67;;;;;;;9.62;94.39;99670.00;5136927;27;20654;-70
2022/04/06 09:10:06;;;;;;;4.83;4.60;;;;;;;9.68;92.38;99671.44;5137026;27;20197;-70
2022/04/06 09:12:32;;;;;;;4.97;4.77;;;;;;;9.73;93.26;99673.81;5136481;27;20525;-70
2022/04/06 09:15:10;;;;;;;5.17;4.70;;;;;;;9.74;91.47;99685.94;5118093;27;20248;-70
2022/04/06 09:17:47;;;;;;;5.03;4.70;;;;;;;9.59;90.00;99675.41;5116217;28;20656;-70
2022/04/06 09:20:16;;;;;;;5.67;3.90;;;;;;;9.60;90.01;99679.69;5121784;27;20229;-69
2022/04/06 09:22:46;;;;;;;4.20;3.93;;;;;;;9.57;90.09;99682.47;5127004;27;20197;-68
2022/04/06 09:25:14;;;;;;;4.73;4.37;;;;;;;9.38;90.49;99674.78;5116720;27;20213;-69
2022/04/06 09:27:41;;;;;;;4.00;3.90;;;;;;;9.42;90.13;99671.97;5116928;27;20235;-69
2022/04/06 09:30:08;;;;;;;3.97;3.67;;;;;;;9.54;89.84;99676.56;5127522;27;20188;-69
2022/04/06 09:32:35;;;;;;;6.80;4.10;;;;;;;9.54;88.76;99684.41;5119720;27;20189;-70
2022/04/06 09:35:23;;;;;;;3.70;3.60;;;;;;;9.49;87.24;99682.03;5131377;27;20208;-70
2022/04/06 09:37:49;;;;;;;5.03;3.00;;;;;;;9.46;87.88;99671.75;5127959;27;20173;-70
2022/04/06 09:40:16;;;;;;;3.73;3.53;;;;;;;9.41;88.86;99668.53;5116480;27;20242;-70
2022/04/06 09:42:50;;;;;;;3.93;3.57;;;;;;;9.55;88.62;99673.84;5115476;28;20189;-70
2022/04/06 09:48:13;;;;;;;3.77;3.33;;;;;;;9.58;88.00;99667.66;5120089;27;20230;-70
2022/04/06 09:50:42;;;;;;;3.57;3.27;;;;;;;9.59;87.92;99671.94;5115163;28;20242;-70
2022/04/06 09:53:09;;;;;;;4.27;4.00;;;;;;;9.47;87.72;99669.97;5115650;28;20230;-70
2022/04/06 09:55:37;;;;;;;5.57;3.67;;;;;;;9.37;88.28;99670.47;5114880;28;20258;-70
2022/04/06 09:58:05;;;;;;;6.10;3.07;;;;;;;9.33;88.46;99665.47;5116119;27;20184;-69
2022/04/06 10:00:34;;;;;;;5.00;3.77;;;;;;;9.37;90.11;99669.63;5114933;27;20181;-69
2022/04/06 10:03:13;;;;;;;4.73;3.60;;;;;;;9.41;88.75;99657.25;5115059;28;20324;-70
2022/04/06 10:05:42;;;;;;;3.10;3.00;;;;;;;9.57;87.72;99672.03;5118658;27;20295;-69
2022/04/06 10:08:10;;;;;;;3.70;3.40;;;;;;;9.63;88.10;99663.84;5126232;27;20200;-70
2022/04/06 10:10:43;;;;;;;3.47;3.30;;;;;;;9.68;87.35;99665.38;5136052;27;20192;-70
2022/04/06 10:13:09;;;;;;;5.13;4.00;;;;;;;9.70;88.05;99676.56;5135474;27;20173;-70
2022/04/06 10:15:57;;;;;;;13.03;3.50;;;;;;;9.64;86.45;99668.16;5135423;27;20238;-70
2022/04/06 10:18:30;;;;;;;7.30;2.87;;;;;;;9.59;87.09;99672.78;5135133;27;20214;-70
2022/04/06 10:21:28;;;;;;;3.10;3.10;;;;;;;9.58;87.80;99659.81;5120684;27;20716;-70
2022/04/06 10:24:07;;;;;;;3.30;3.20;;;;;;;9.68;87.65;99654.91;5114663;28;20189;-69
2022/04/06 10:27:04;;;;;;;3.10;2.77;;;;;;;9.61;87.07;99647.41;5114425;28;20238;-70
2022/04/06 10:29:30;;;;;;;4.17;3.10;;;;;;;9.71;86.88;99636.44;5125512;27;20206;-70
2022/04/06 10:31:57;;;;;;;3.73;3.63;;;;;;;9.69;87.59;99646.13;5135304;27;20213;-70
2022/04/06 10:34:30;;;;;;;3.00;2.83;;;;;;;9.70;87.74;99646.03;5130214;27;20200;-69
2022/04/06 10:37:06;;;;;;;5.70;2.97;;;;;;;9.80;87.76;99655.09;5114703;28;20196;-70
2022/04/06 10:39:59;;;;;;;6.07;3.83;;;;;;;9.62;86.78;99630.78;5114725;28;20661;-70
2022/04/06 10:42:34;;;;;;;5.90;3.60;;;;;;;9.70;87.00;99632.97;5114827;28;20624;-70
2022/04/06 10:45:03;;;;;;;4.30;4.03;;;;;;;9.77;87.90;99649.16;5115099;27;20216;-70
2022/04/06 10:47:31;;;;;;;3.10;2.87;;;;;;;9.74;87.19;99637.13;5114130;28;20185;-70
2022/04/06 10:50:10;;;;;;;5.20;3.60;;;;;;;9.74;87.76;99637.13;5114072;28;20185;-70
2022/04/06 10:52:36;;;;;;;5.87;3.33;;;;;;;9.87;88.01;99634.69;5113932;28;20193;-70
2022/04/06 10:55:11;;;;;;;8.00;3.83;;;;;;;9.95;88.08;99642.94;5113925;28;20632;-70
2022/04/06 10:57:59;;;;;;;3.07;3.07;;;;;;;10.00;87.99;99635.69;5117716;27;20187;-69
2022/04/06 11:00:25;;;;;;;3.13;3.13;;;;;;;9.98;88.31;99637.53;5134306;27;20695;-70
2022/04/06 11:02:53;;;;;;;6.80;3.00;;;;;;;9.84;89.61;99629.59;5134278;27;20192;-70
2022/04/06 11:05:44;;;;;;;4.13;3.83;;;;;;;9.82;89.37;99628.84;5128721;27;20208;-71
2022/04/06 11:11:46;;;;;;;3.97;3.77;;;;;;;9.73;91.07;99632.00;5113856;28;20178;-70
2022/04/06 11:14:33;;;;;;;4.33;4.03;;;;;;;9.68;90.61;99620.94;5102834;28;20325;-70
2022/04/06 11:17:00;;;;;;;4.77;4.23;;;;;;;9.74;90.58;99617.97;5113596;28;20185;-70
2022/04/06 11:19:28;;;;;;;6.63;4.40;;;;;;;9.79;89.60;99627.25;5113995;28;20223;-71
2022/04/06 11:21:56;;;;;;;5.07;4.60;;;;;;;9.78;91.04;99614.25;5114228;28;20513;-70
2022/04/06 11:24:25;;;;;;;3.77;3.43;;;;;;;9.89;90.95;99617.13;5113730;28;20209;-70
2022/04/06 11:26:51;;;;;;;4.43;4.00;;;;;;;9.90;90.42;99621.41;5113869;28;20226;-70
2022/04/06 11:29:18;;;;;;;10.97;4.17;;;;;;;9.89;91.58;99614.50;5113567;28;20189;-70
2022/04/06 11:31:55;;;;;;;4.50;4.30;;;;;;;9.94;90.68;99615.09;5128560;28;20197;-70
2022/04/06 11:34:32;;;;;;;4.73;4.43;;;;;;;9.84;89.82;99608.69;5127578;28;20200;-70
2022/04/06 11:36:59;;;;;;;9.70;5.07;;;;;;;9.84;92.19;99617.38;5133938;28;20180;-69
2022/04/06 11:39:28;;;;;;;4.70;4.47;;;;;;;9.76;92.43;99613.50;5134321;28;20200;-70
2022/04/06 11:41:54;;;;;;;4.50;4.40;;;;;;;9.79;93.23;99613.34;5127986;28;20189;-70
2022/04/06 11:44:23;;;;;;;5.57;5.33;;;;;;;9.73;93.46;99611.91;5113238;28;20212;-71
2022/04/06 11:46:49;;;;;;;4.50;4.50;;;;;;;9.77;92.90;99613.41;5115941;28;20192;-70
2022/04/06 11:49:26;;;;;;;4.90;4.60;;;;;;;9.76;92.33;99619.56;5132768;28;20203;-70
2022/04/06 11:51:54;;;;;;;4.83;4.50;;;;;;;9.73;92.55;99617.16;5111206;28;20196;-69
2022/04/06 11:54:22;;;;;;;7.93;4.27;;;;;;;9.56;92.67;99601.53;5114463;28;20266;-69